Time;durP1;ratioP1;P1;durP2;ratioP2;P2;SDS_P1;SDS_P2;PMS_P1;PMS_P2;Temp;Humidity;BMP_temperature;BMP_pressure;BME280_temperature;BME280_humidity;BME280_pressure;Samples;Min_cycle;Max_cycle;Signal;HPM_P1;HPM_P2
2023/10/18 00:01:55;;;;;;;15.97;7.30;;;;;;;2.81;100.00;102058.66;7367691;19;20431;-43
2023/10/18 00:04:25;;;;;;;13.77;7.47;;;;;;;2.81;100.00;102058.66;7391138;19;20773;-43
2023/10/18 00:06:58;;;;;;;19.13;8.60;;;;;;;2.81;100.00;102058.66;7367810;19;20433;-41
2023/10/18 00:12:10;;;;;;;14.40;7.90;;;;;;;2.79;100.00;102060.16;7367953;19;20462;-41
2023/10/18 00:14:40;;;;;;;14.53;7.23;;;;;;;2.73;100.00;102057.03;7374511;19;20423;-42
2023/10/18 00:17:10;;;;;;;16.10;8.57;;;;;;;2.71;100.00;102053.44;7391551;19;20394;-41
2023/10/18 00:19:40;;;;;;;17.67;8.03;;;;;;;2.62;100.00;102055.13;7367762;19;20463;-44
2023/10/18 00:22:13;;;;;;;16.57;8.27;;;;;;;2.58;100.00;102058.13;7388250;19;20415;-42
2023/10/18 00:24:42;;;;;;;18.03;7.40;;;;;;;2.56;100.00;102051.22;7369867;19;20411;-44
2023/10/18 00:27:12;;;;;;;21.80;8.80;;;;;;;2.59;100.00;102054.81;7389847;19;20415;-42
2023/10/18 00:29:43;;;;;;;14.30;7.70;;;;;;;2.65;100.00;102048.66;7368918;19;20384;-42
2023/10/18 00:32:12;;;;;;;17.07;8.20;;;;;;;2.66;100.00;102042.81;7389028;19;20427;-42
2023/10/18 00:34:42;;;;;;;17.20;8.80;;;;;;;2.67;100.00;102043.72;7372749;19;20410;-43
2023/10/18 00:37:16;;;;;;;14.00;7.73;;;;;;;2.68;100.00;102038.75;7390752;19;20481;-43
2023/10/18 00:39:46;;;;;;;14.50;8.10;;;;;;;2.73;100.00;102035.72;7367123;19;20398;-45
2023/10/18 00:42:28;;;;;;;19.40;8.13;;;;;;;2.67;100.00;102036.94;7392164;19;20471;-42
2023/10/18 00:45:02;;;;;;;12.60;7.20;;;;;;;2.66;100.00;102029.19;7368446;19;20384;-42
2023/10/18 00:47:32;;;;;;;16.33;8.33;;;;;;;2.56;100.00;102030.84;7390214;19;20412;-42
2023/10/18 00:50:02;;;;;;;17.30;7.27;;;;;;;2.51;100.00;102032.06;7369809;19;20391;-42
2023/10/18 00:52:35;;;;;;;13.77;6.93;;;;;;;2.42;100.00;102029.53;7393343;19;20439;-42
2023/10/18 00:55:05;;;;;;;15.30;7.10;;;;;;;2.44;100.00;102029.69;7368136;19;20383;-43
2023/10/18 00:57:37;;;;;;;12.53;7.30;;;;;;;2.44;100.00;102009.28;7388900;19;20463;-41
2023/10/18 01:00:24;;;;;;;15.43;7.10;;;;;;;2.46;100.00;102023.06;7368735;19;20427;-44
2023/10/18 01:02:59;;;;;;;12.50;6.93;;;;;;;2.44;100.00;102014.41;7388262;19;20490;-43
2023/10/18 01:05:29;;;;;;;18.03;8.50;;;;;;;2.45;100.00;102020.41;7367022;19;20850;-42
2023/10/18 01:08:06;;;;;;;14.07;7.40;;;;;;;2.37;100.00;102015.44;7388771;19;20948;-41
2023/10/18 01:10:37;;;;;;;13.40;7.77;;;;;;;2.40;100.00;102019.94;7367005;19;20934;-42
2023/10/18 01:13:09;;;;;;;15.67;8.03;;;;;;;2.38;100.00;102014.72;7383912;19;20435;-43
2023/10/18 01:15:38;;;;;;;13.50;7.13;;;;;;;2.42;100.00;102010.81;7368870;19;21002;-41
2023/10/18 01:18:11;;;;;;;17.27;7.73;;;;;;;2.38;100.00;102013.81;7393372;19;20403;-42
2023/10/18 01:20:41;;;;;;;12.37;6.77;;;;;;;2.28;100.00;102007.84;7367920;19;20410;-42
2023/10/18 01:23:13;;;;;;;15.80;7.40;;;;;;;2.19;100.00;102006.97;7392369;19;20455;-42
2023/10/18 01:25:47;;;;;;;15.63;8.17;;;;;;;2.22;100.00;102011.44;7375837;19;20475;-43
2023/10/18 01:28:16;;;;;;;13.60;6.80;;;;;;;2.23;100.00;102006.50;7397672;19;20413;-42
2023/10/18 01:30:46;;;;;;;13.83;7.10;;;;;;;2.22;100.00;101999.63;7376985;19;20767;-41
2023/10/18 01:33:16;;;;;;;14.47;6.60;;;;;;;2.14;100.00;101998.88;7397339;19;20438;-44
2023/10/18 01:35:51;;;;;;;12.93;7.10;;;;;;;2.20;100.00;101987.50;7376294;19;20490;-44
2023/10/18 01:38:25;;;;;;;14.47;7.17;;;;;;;2.21;100.00;101990.16;7400564;19;20418;-42
2023/10/18 01:40:58;;;;;;;12.40;6.97;;;;;;;2.27;100.00;101979.69;7376657;19;20502;-42
2023/10/18 01:43:28;;;;;;;13.30;7.50;;;;;;;2.23;100.00;101970.84;7400852;19;20418;-44
2023/10/18 01:45:57;;;;;;;15.40;8.43;;;;;;;2.21;100.00;101969.78;7374364;19;20472;-42
2023/10/18 01:48:30;;;;;;;13.90;7.70;;;;;;;2.15;100.00;101969.22;7397702;19;20491;-43
2023/10/18 01:51:01;;;;;;;13.50;6.80;;;;;;;2.16;100.00;101959.19;7375403;19;20455;-41
2023/10/18 01:53:30;;;;;;;14.00;7.40;;;;;;;2.13;100.00;101991.09;7400384;19;20411;-42
2023/10/18 01:56:03;;;;;;;17.73;8.03;;;;;;;2.20;100.00;101978.19;7374068;19;20419;-43
2023/10/18 01:58:35;;;;;;;10.07;6.77;;;;;;;2.24;100.00;101974.28;7400570;19;20395;-42
2023/10/18 02:01:09;;;;;;;13.17;7.27;;;;;;;2.35;100.00;101958.38;7372885;19;20490;-44
2023/10/18 02:03:39;;;;;;;12.30;7.13;;;;;;;2.43;100.00;101956.56;7397008;19;20436;-41
2023/10/18 02:06:09;;;;;;;12.60;7.47;;;;;;;2.40;100.00;101952.06;7375002;19;20427;-43
2023/10/18 02:08:39;;;;;;;14.03;7.40;;;;;;;2.41;100.00;101952.97;7398215;19;20415;-42
2023/10/18 02:11:12;;;;;;;13.70;7.33;;;;;;;2.39;100.00;101949.38;7372756;19;20476;-43
2023/10/18 02:13:42;;;;;;;15.53;7.97;;;;;;;2.40;100.00;101952.06;7397976;19;20415;-42
2023/10/18 02:16:15;;;;;;;11.43;7.70;;;;;;;2.34;100.00;101950.56;7373486;19;20518;-42
2023/10/18 02:18:46;;;;;;;11.90;6.30;;;;;;;2.28;100.00;101946.72;7400816;19;20608;-42
2023/10/18 02:21:16;;;;;;;15.50;6.83;;;;;;;2.22;100.00;101943.59;7371704;19;20465;-42
2023/10/18 02:23:50;;;;;;;13.37;7.07;;;;;;;2.21;100.00;101949.41;7400209;19;20467;-42
2023/10/18 02:26:33;;;;;;;16.63;7.70;;;;;;;2.19;100.00;101950.06;7374189;19;20419;-42
2023/10/18 02:29:10;;;;;;;15.77;7.30;;;;;;;2.19;100.00;101943.28;7396765;19;20411;-41
2023/10/18 02:31:42;;;;;;;14.47;6.73;;;;;;;2.12;100.00;101943.47;7369286;19;20514;-42
2023/10/18 02:34:14;;;;;;;12.33;6.80;;;;;;;2.11;100.00;101944.22;7395221;19;20403;-43
2023/10/18 02:36:58;;;;;;;14.93;7.73;;;;;;;2.12;100.00;101943.47;7375081;19;20418;-42
2023/10/18 02:39:32;;;;;;;12.37;7.20;;;;;;;2.04;100.00;101952.91;7396937;19;20442;-41
2023/10/18 02:42:06;;;;;;;13.50;7.17;;;;;;;1.99;100.00;101947.38;7372974;19;20501;-45
2023/10/18 02:44:37;;;;;;;17.07;6.43;;;;;;;2.00;100.00;101951.72;7397087;19;20411;-41
2023/10/18 02:47:16;;;;;;;13.23;7.30;;;;;;;2.00;100.00;101950.84;7375175;19;20435;-44
2023/10/18 02:49:51;;;;;;;13.37;6.93;;;;;;;1.98;100.00;101948.16;7374996;19;20415;-42
2023/10/18 02:52:21;;;;;;;16.83;7.40;;;;;;;1.99;100.00;101946.47;7394023;19;20446;-42
2023/10/18 02:54:51;;;;;;;15.67;7.10;;;;;;;1.93;100.00;101948.44;7374388;19;20411;-42
2023/10/18 02:57:24;;;;;;;13.90;6.60;;;;;;;1.90;100.00;101949.06;7396926;19;20490;-42
2023/10/18 02:59:54;;;;;;;15.27;6.73;;;;;;;1.91;100.00;101948.31;7377232;19;20411;-41
2023/10/18 03:02:26;;;;;;;11.37;6.80;;;;;;;1.91;100.00;101937.22;7394102;19;20454;-41
2023/10/18 03:04:56;;;;;;;14.80;6.47;;;;;;;1.96;100.00;101931.84;7372698;19;20399;-42
2023/10/18 03:07:27;;;;;;;11.90;7.17;;;;;;;2.03;100.00;101935.84;7394784;19;20400;-41
2023/10/18 03:10:02;;;;;;;10.87;7.13;;;;;;;2.01;100.00;101938.25;7372527;19;21014;-44
2023/10/18 03:12:36;;;;;;;14.73;7.03;;;;;;;1.92;100.00;101934.84;7394256;19;20451;-43
2023/10/18 03:15:11;;;;;;;15.87;6.67;;;;;;;1.89;100.00;101932.88;7372666;19;20466;-41
2023/10/18 03:17:41;;;;;;;12.50;6.77;;;;;;;1.77;100.00;101933.34;7397381;19;20482;-41
2023/10/18 03:20:19;;;;;;;13.93;7.10;;;;;;;1.73;100.00;101938.16;7370743;19;20412;-44
2023/10/18 03:22:49;;;;;;;13.17;7.10;;;;;;;1.63;100.00;101940.53;7395287;19;20459;-43
2023/10/18 03:25:26;;;;;;;13.43;6.93;;;;;;;1.62;100.00;101943.84;7373652;19;20407;-42
2023/10/18 03:28:04;;;;;;;13.43;6.93;;;;;;;1.64;100.00;101932.16;7393509;19;20770;-43
2023/10/18 03:30:44;;;;;;;10.50;6.13;;;;;;;1.67;100.00;101927.38;7372673;19;20421;-42
2023/10/18 03:33:16;;;;;;;17.20;8.03;;;;;;;1.70;100.00;101927.66;7394034;19;20458;-41
2023/10/18 03:35:49;;;;;;;18.13;8.13;;;;;;;1.69;100.00;101928.41;7372276;19;20391;-45
2023/10/18 03:38:21;;;;;;;15.80;7.40;;;;;;;1.70;100.00;101931.88;7394638;19;20431;-41
2023/10/18 03:40:56;;;;;;;11.13;6.67;;;;;;;1.70;100.00;101931.88;7372272;19;20475;-42
2023/10/18 03:43:32;;;;;;;17.53;6.80;;;;;;;1.62;100.00;101923.50;7397102;19;20411;-41
2023/10/18 03:46:18;;;;;;;14.50;7.57;;;;;;;1.54;100.00;101920.19;7368930;19;20438;-43
2023/10/18 03:48:54;;;;;;;14.80;7.30;;;;;;;1.52;100.00;101923.34;7396420;19;20399;-42
2023/10/18 03:51:24;;;;;;;13.20;6.40;;;;;;;1.58;100.00;101916.31;7369389;19;21006;-42
2023/10/18 03:53:55;;;;;;;13.57;7.73;;;;;;;1.56;100.00;101908.53;7395487;19;20999;-41
2023/10/18 03:56:26;;;;;;;13.37;7.90;;;;;;;1.57;100.00;101904.34;7371447;19;20423;-42
2023/10/18 03:59:09;;;;;;;14.07;7.20;;;;;;;1.47;100.00;101893.28;7396508;19;20411;-42
2023/10/18 04:01:49;;;;;;;15.53;7.70;;;;;;;1.40;100.00;101880.72;7369177;19;21448;-43
2023/10/18 04:04:21;;;;;;;11.40;7.07;;;;;;;1.40;100.00;101877.28;7395950;19;20403;-41
2023/10/18 04:06:58;;;;;;;15.93;7.57;;;;;;;1.50;100.00;101868.88;7371683;19;20423;-41
2023/10/18 04:09:29;;;;;;;16.07;7.30;;;;;;;1.50;100.00;101863.78;7394284;19;20756;-42
2023/10/18 04:12:00;;;;;;;12.23;7.70;;;;;;;1.41;100.00;101890.16;7370201;19;20992;-42
2023/10/18 04:14:33;;;;;;;14.10;6.80;;;;;;;1.37;100.00;101880.41;7395975;19;20981;-41
2023/10/18 04:17:09;;;;;;;14.70;7.50;;;;;;;1.37;100.00;101880.41;7372330;19;20468;-42
2023/10/18 04:19:39;;;;;;;16.27;7.50;;;;;;;1.33;100.00;101870.72;7379200;19;20406;-42
2023/10/18 04:22:09;;;;;;;15.37;7.10;;;;;;;1.30;100.00;101868.75;7393794;19;20514;-42
2023/10/18 04:24:39;;;;;;;14.17;6.77;;;;;;;1.29;100.00;101872.03;7377367;19;20401;-42
2023/10/18 04:27:11;;;;;;;12.23;6.97;;;;;;;1.35;100.00;101861.56;7395775;19;20419;-42
2023/10/18 04:29:47;;;;;;;17.23;7.20;;;;;;;1.31;100.00;101859.47;7372294;19;20412;-42
2023/10/18 04:32:18;;;;;;;14.40;7.47;;;;;;;1.38;100.00;101850.81;7391375;19;20446;-41
2023/10/18 04:34:48;;;;;;;14.60;8.37;;;;;;;2.08;100.00;101826.78;7373664;19;20403;-43
2023/10/18 04:37:22;;;;;;;22.47;11.70;;;;;;;2.51;100.00;101791.66;7393382;19;20390;-42
2023/10/18 04:39:53;;;;;;;29.23;14.37;;;;;;;2.68;100.00;101760.06;7371135;19;20412;-42
2023/10/18 04:42:24;;;;;;;21.93;11.60;;;;;;;2.83;100.00;101743.56;7391092;19;20439;-42
2023/10/18 04:44:57;;;;;;;20.87;10.83;;;;;;;2.81;100.00;101736.53;7373156;19;20406;-42
2023/10/18 04:47:33;;;;;;;22.80;9.43;;;;;;;2.72;100.00;101723.88;7393365;19;20814;-42
2023/10/18 04:50:11;;;;;;;17.60;9.13;;;;;;;2.35;100.00;101730.78;7371645;19;21235;-41
2023/10/18 04:52:47;;;;;;;13.37;7.80;;;;;;;2.04;100.00;101746.69;7391824;19;20453;-41
2023/10/18 04:55:15;;;;;;;14.63;7.83;;;;;;;1.99;100.00;101773.38;7369707;19;20470;-42
2023/10/18 04:57:46;;;;;;;16.97;8.27;;;;;;;2.11;100.00;101783.81;7394090;19;20486;-41
2023/10/18 05:00:35;;;;;;;17.00;7.50;;;;;;;2.15;100.00;101789.31;7369233;19;20950;-42
2023/10/18 05:03:07;;;;;;;15.50;8.57;;;;;;;1.98;100.00;101805.59;7391325;19;20443;-41
2023/10/18 05:05:44;;;;;;;16.00;7.10;;;;;;;1.87;100.00;101822.41;7369019;19;20427;-42
2023/10/18 05:08:17;;;;;;;17.00;8.10;;;;;;;1.88;100.00;101836.00;7393604;19;20404;-43
2023/10/18 05:10:49;;;;;;;14.00;7.40;;;;;;;1.78;100.00;101843.53;7368913;19;20422;-41
2023/10/18 05:13:32;;;;;;;15.00;7.60;;;;;;;1.55;100.00;101849.88;7392238;19;20431;-40
2023/10/18 05:16:10;;;;;;;13.93;7.17;;;;;;;1.45;100.00;101868.44;7368123;19;20442;-43
2023/10/18 05:18:39;;;;;;;15.13;7.33;;;;;;;1.30;100.00;101867.84;7392737;19;20415;-41
2023/10/18 05:21:10;;;;;;;13.00;6.17;;;;;;;1.18;100.00;101876.06;7366109;19;20976;-42
2023/10/18 05:23:41;;;;;;;12.40;5.70;;;;;;;1.11;100.00;101882.94;7394408;19;20403;-41
2023/10/18 05:26:17;;;;;;;10.77;6.00;;;;;;;1.06;100.00;101891.03;7368194;19;20402;-42
2023/10/18 05:28:52;;;;;;;10.87;6.17;;;;;;;1.02;100.00;101890.59;7392618;19;20407;-41
2023/10/18 05:34:22;;;;;;;10.93;5.70;;;;;;;1.07;100.00;101885.19;7391324;19;20387;-44
2023/10/18 05:36:54;;;;;;;11.47;5.90;;;;;;;1.09;100.00;101882.81;7369072;19;20426;-42
2023/10/18 05:39:42;;;;;;;13.50;6.90;;;;;;;1.03;100.00;101887.31;7392578;19;20419;-43
2023/10/18 05:42:20;;;;;;;16.13;7.27;;;;;;;1.00;100.00;101882.81;7368625;19;21076;-43
2023/10/18 05:44:51;;;;;;;10.47;6.33;;;;;;;0.97;100.00;101882.50;7369613;19;20415;-41
2023/10/18 05:47:25;;;;;;;10.43;5.40;;;;;;;0.96;100.00;101879.81;7392302;19;20407;-42
2023/10/18 05:49:56;;;;;;;8.60;5.47;;;;;;;0.96;100.00;101887.44;7370844;19;21258;-43
2023/10/18 05:52:36;;;;;;;11.80;5.20;;;;;;;0.90;100.00;101883.53;7389453;19;20447;-42
2023/10/18 05:55:09;;;;;;;13.00;5.67;;;;;;;0.92;100.00;101887.13;7370368;19;20440;-41
2023/10/18 05:57:45;;;;;;;13.23;6.03;;;;;;;0.96;100.00;101873.06;7393060;19;20466;-46
2023/10/18 06:00:19;;;;;;;10.80;5.70;;;;;;;0.93;100.00;101871.13;7369986;19;20839;-43
2023/10/18 06:02:52;;;;;;;11.40;5.83;;;;;;;0.87;100.00;101870.53;7381989;19;20893;-42
2023/10/18 06:05:22;;;;;;;10.37;5.53;;;;;;;0.87;100.00;101875.59;7359787;19;20834;-43
2023/10/18 06:07:52;;;;;;;14.00;6.50;;;;;;;0.88;100.00;101872.31;7383549;19;20414;-47
2023/10/18 06:10:23;;;;;;;12.93;5.40;;;;;;;0.93;100.00;101870.25;7367985;19;20779;-42
2023/10/18 06:12:56;;;;;;;12.77;5.67;;;;;;;0.94;100.00;101865.28;7389855;19;20473;-42
2023/10/18 06:15:34;;;;;;;10.87;5.80;;;;;;;0.99;100.00;101859.78;7368507;19;20795;-42
2023/10/18 06:18:09;;;;;;;9.57;4.87;;;;;;;1.02;100.00;101853.34;7391131;19;21025;-41
2023/10/18 06:20:41;;;;;;;18.10;8.87;;;;;;;1.06;100.00;101840.19;7368259;19;20405;-40
2023/10/18 06:23:36;;;;;;;10.20;5.70;;;;;;;1.10;100.00;101833.75;7389557;19;20433;-42
2023/10/18 06:26:10;;;;;;;13.77;6.93;;;;;;;1.10;100.00;101828.69;7369481;19;20839;-43
2023/10/18 06:28:40;;;;;;;17.00;7.30;;;;;;;1.10;100.00;101828.69;7390560;19;20449;-43
2023/10/18 06:31:10;;;;;;;10.93;6.00;;;;;;;1.17;100.00;101825.97;7367653;19;20496;-45
2023/10/18 06:33:42;;;;;;;11.10;5.33;;;;;;;1.19;100.00;101824.47;7389202;19;20431;-45
2023/10/18 06:36:15;;;;;;;10.00;5.13;;;;;;;1.20;100.00;101825.38;7367402;19;20415;-42
2023/10/18 06:38:45;;;;;;;13.80;5.93;;;;;;;1.40;100.00;101813.69;7390326;19;20382;-42
2023/10/18 06:41:19;;;;;;;38.40;15.67;;;;;;;1.59;100.00;101807.06;7367535;19;20497;-41
2023/10/18 06:43:49;;;;;;;17.33;8.73;;;;;;;1.99;100.00;101784.47;7389756;19;20415;-41
2023/10/18 06:46:29;;;;;;;24.73;12.80;;;;;;;2.26;100.00;101767.38;7368192;19;20438;-41
2023/10/18 06:49:02;;;;;;;31.77;13.83;;;;;;;2.32;100.00;101763.59;7390506;19;20403;-41
2023/10/18 06:51:43;;;;;;;28.73;13.70;;;;;;;2.64;100.00;101752.88;7366055;19;20480;-41
2023/10/18 06:54:23;;;;;;;17.90;9.13;;;;;;;2.51;100.00;101761.97;7392054;19;20395;-42
2023/10/18 06:56:53;;;;;;;26.67;12.20;;;;;;;2.80;100.00;101755.16;7367405;19;20422;-42
2023/10/18 06:59:26;;;;;;;17.47;8.47;;;;;;;2.82;100.00;101774.91;7390745;19;20416;-41
2023/10/18 07:01:58;;;;;;;18.90;10.13;;;;;;;2.83;100.00;101781.81;7366131;19;20450;-41
2023/10/18 07:04:35;;;;;;;14.43;8.23;;;;;;;2.86;100.00;101810.91;7388706;19;21345;-41
2023/10/18 07:07:11;;;;;;;15.90;7.27;;;;;;;3.02;100.00;101818.28;7367828;19;20499;-41
2023/10/18 07:09:42;;;;;;;44.13;18.50;;;;;;;2.94;100.00;101837.97;7368994;19;20406;-41
2023/10/18 07:12:17;;;;;;;20.47;7.50;;;;;;;2.82;100.00;101845.44;7386654;19;20451;-44
2023/10/18 07:14:47;;;;;;;39.17;16.20;;;;;;;2.92;100.00;101839.50;7367965;19;20425;-40
2023/10/18 07:17:21;;;;;;;38.07;16.53;;;;;;;3.29;100.00;101845.34;7387563;19;20751;-41
2023/10/18 07:19:56;;;;;;;17.23;8.00;;;;;;;3.35;100.00;101845.84;7365304;19;20905;-41
2023/10/18 07:22:39;;;;;;;15.30;8.20;;;;;;;3.18;100.00;101848.59;7386189;19;20439;-42
2023/10/18 07:25:19;;;;;;;17.57;8.60;;;;;;;3.35;100.00;101843.31;7367897;19;20468;-41
2023/10/18 07:27:49;;;;;;;15.50;9.20;;;;;;;3.34;100.00;101843.19;7387383;19;20844;-41
2023/10/18 07:30:19;;;;;;;25.63;10.10;;;;;;;3.41;100.00;101829.31;7365903;19;20503;-42
2023/10/18 07:32:57;;;;;;;19.00;8.40;;;;;;;3.28;100.00;101820.56;7386588;19;20538;-39
2023/10/18 07:35:31;;;;;;;17.30;9.10;;;;;;;3.16;100.00;101824.56;7367830;19;20518;-40
2023/10/18 07:38:01;;;;;;;10.47;6.17;;;;;;;3.15;100.00;101810.03;7392129;19;20760;-39
2023/10/18 07:40:40;;;;;;;11.57;5.20;;;;;;;3.16;100.00;101811.81;7370767;19;20411;-40
2023/10/18 07:43:12;;;;;;;9.23;5.23;;;;;;;3.26;100.00;101817.00;7392998;19;20423;-39
2023/10/18 07:45:45;;;;;;;16.97;7.13;;;;;;;3.33;100.00;101811.66;7371797;19;20399;-39
2023/10/18 07:48:16;;;;;;;10.67;6.00;;;;;;;3.37;100.00;101811.19;7395388;19;20410;-41
2023/10/18 07:50:54;;;;;;;9.87;5.63;;;;;;;3.46;100.00;101798.34;7370077;19;20411;-38
2023/10/18 07:53:35;;;;;;;14.13;5.33;;;;;;;3.55;100.00;101812.66;7394075;19;20510;-39
2023/10/18 07:56:15;;;;;;;9.03;5.43;;;;;;;3.67;100.00;101808.63;7370241;19;20498;-40
2023/10/18 07:58:48;;;;;;;12.43;5.63;;;;;;;3.77;100.00;101805.19;7394925;19;20697;-40
2023/10/18 08:01:46;;;;;;;15.57;6.13;;;;;;;3.84;100.00;101807.50;7370347;19;20430;-40
2023/10/18 08:04:09;;;;;;;12.87;6.10;;;;;;;3.94;100.00;101803.22;7393921;19;20439;-40
2023/10/18 08:06:44;;;;;;;12.73;5.93;;;;;;;4.04;100.00;101808.31;7370623;19;20427;-40
2023/10/18 08:09:16;;;;;;;21.83;8.00;;;;;;;4.10;100.00;101801.19;7395320;19;20418;-40
2023/10/18 08:11:47;;;;;;;13.90;6.70;;;;;;;4.15;100.00;101789.69;7369313;19;20433;-41
2023/10/18 08:14:24;;;;;;;14.93;8.80;;;;;;;4.24;100.00;101796.34;7394330;19;20439;-41
2023/10/18 08:16:56;;;;;;;14.37;7.27;;;;;;;4.34;100.00;101793.78;7371545;19;20790;-39
2023/10/18 08:19:30;;;;;;;11.40;6.20;;;;;;;4.43;100.00;101791.13;7393672;19;20408;-39
2023/10/18 08:22:21;;;;;;;9.40;5.43;;;;;;;4.53;100.00;101785.09;7369179;19;20432;-40
2023/10/18 08:24:54;;;;;;;11.07;6.63;;;;;;;4.60;100.00;101782.28;7371530;19;20820;-41
2023/10/18 08:27:21;;;;;;;13.50;6.53;;;;;;;4.68;100.00;101773.56;7392454;19;20412;-41
2023/10/18 08:29:56;;;;;;;12.17;6.33;;;;;;;4.76;100.00;101770.78;7371692;19;20392;-40
2023/10/18 08:32:32;;;;;;;14.30;6.77;;;;;;;4.86;100.00;101753.75;7390404;19;20510;-40
2023/10/18 08:35:10;;;;;;;13.07;5.90;;;;;;;4.97;100.00;101756.28;7369209;19;20395;-41
2023/10/18 08:37:43;;;;;;;13.30;6.03;;;;;;;5.08;100.00;101752.03;7392358;19;20419;-41
2023/10/18 08:40:37;;;;;;;11.63;5.90;;;;;;;5.20;100.00;101753.00;7369776;19;20478;-40
2023/10/18 08:43:12;;;;;;;9.40;5.50;;;;;;;5.33;100.00;101730.94;7392018;19;20423;-40
2023/10/18 08:45:47;;;;;;;20.13;8.40;;;;;;;5.45;100.00;101731.91;7368885;19;20428;-41
2023/10/18 08:48:21;;;;;;;18.53;8.93;;;;;;;5.63;100.00;101718.72;7393886;19;20406;-41
2023/10/18 08:50:51;;;;;;;14.80;7.47;;;;;;;5.76;100.00;101706.13;7369175;19;20839;-41
2023/10/18 08:53:25;;;;;;;9.00;4.97;;;;;;;5.89;100.00;101705.38;7393183;19;20439;-41
2023/10/18 08:55:57;;;;;;;10.20;5.30;;;;;;;6.02;100.00;101686.75;7369955;19;20449;-41
2023/10/18 08:58:28;;;;;;;10.13;5.07;;;;;;;6.10;100.00;101659.09;7392644;19;20414;-41
2023/10/18 09:01:03;;;;;;;11.07;6.40;;;;;;;6.29;100.00;101647.66;7369113;19;20483;-41
2023/10/18 09:03:35;;;;;;;12.63;4.63;;;;;;;6.38;100.00;101629.50;7392279;19;20450;-40
2023/10/18 09:06:04;;;;;;;8.90;4.57;;;;;;;6.49;100.00;101605.53;7367946;19;20579;-40
2023/10/18 09:08:41;;;;;;;11.20;5.53;;;;;;;6.67;100.00;101575.16;7392267;19;20423;-40
2023/10/18 09:11:21;;;;;;;8.63;4.23;;;;;;;6.82;100.00;101511.22;7366345;19;20977;-41
2023/10/18 09:16:41;;;;;;;7.20;3.60;;;;;;;7.09;100.00;101443.75;7368263;19;20430;-41
2023/10/18 09:19:11;;;;;;;10.07;4.23;;;;;;;7.14;100.00;101386.78;7393333;19;20750;-41
2023/10/18 09:21:51;;;;;;;6.70;3.23;;;;;;;7.32;100.00;101352.84;7366475;19;20420;-41
2023/10/18 09:24:30;;;;;;;7.90;3.50;;;;;;;7.47;100.00;101329.84;7391323;19;20806;-41
2023/10/18 09:27:01;;;;;;;5.83;3.23;;;;;;;7.47;100.00;101263.06;7368904;19;20580;-40
2023/10/18 09:29:31;;;;;;;5.00;2.77;;;;;;;7.55;100.00;101210.50;7391549;19;20395;-41
2023/10/18 09:32:09;;;;;;;9.03;3.50;;;;;;;7.61;100.00;101153.50;7367216;19;20872;-41
2023/10/18 09:34:42;;;;;;;5.47;3.00;;;;;;;7.65;100.00;101109.22;7379855;19;20965;-41
2023/10/18 09:37:13;;;;;;;4.33;2.30;;;;;;;7.76;100.00;101089.31;7394103;19;20410;-39
2023/10/18 09:39:46;;;;;;;3.67;2.50;;;;;;;7.87;100.00;101064.25;7372824;19;20413;-41
2023/10/18 09:42:16;;;;;;;10.60;4.40;;;;;;;8.03;100.00;101052.28;7393294;19;20424;-39
2023/10/18 09:44:46;;;;;;;10.40;5.20;;;;;;;8.20;100.00;101046.41;7376042;19;20439;-40
2023/10/18 09:47:15;;;;;;;5.00;2.20;;;;;;;8.22;100.00;101007.94;7400422;19;20754;-42
2023/10/18 09:49:46;;;;;;;5.83;2.10;;;;;;;8.36;100.00;100998.44;7379452;19;20428;-40
2023/10/18 09:52:16;;;;;;;15.00;5.63;;;;;;;8.48;100.00;100988.81;7398129;19;20616;-41
2023/10/18 09:54:51;;;;;;;3.70;2.00;;;;;;;8.43;100.00;100979.94;7377418;19;20478;-41
2023/10/18 09:57:26;;;;;;;5.13;2.20;;;;;;;8.51;100.00;100976.13;7401302;19;20423;-40
2023/10/18 09:59:56;;;;;;;8.33;1.97;;;;;;;8.53;100.00;100972.75;7376542;19;20474;-40
2023/10/18 10:02:27;;;;;;;6.03;1.70;;;;;;;8.59;100.00;100986.84;7395988;19;20450;-41
2023/10/18 10:05:05;;;;;;;3.90;1.87;;;;;;;8.60;100.00;100977.41;7375163;19;20451;-41
2023/10/18 10:07:41;;;;;;;8.43;2.10;;;;;;;8.59;100.00;100975.66;7399301;19;20416;-40
2023/10/18 10:10:24;;;;;;;4.40;2.23;;;;;;;8.64;100.00;100981.94;7374139;19;20390;-41
2023/10/18 10:12:57;;;;;;;8.37;2.47;;;;;;;8.65;100.00;100983.69;7396886;19;20426;-40
2023/10/18 10:15:29;;;;;;;8.90;1.67;;;;;;;8.77;100.00;100984.34;7373849;19;20414;-41
2023/10/18 10:18:00;;;;;;;6.10;2.00;;;;;;;8.89;100.00;100981.56;7397964;19;20399;-41
2023/10/18 10:20:40;;;;;;;8.53;2.13;;;;;;;8.99;100.00;100977.75;7372364;19;20470;-41
2023/10/18 10:23:15;;;;;;;3.60;1.53;;;;;;;8.96;100.00;100966.44;7395329;19;20423;-41
2023/10/18 10:26:11;;;;;;;9.03;3.30;;;;;;;8.87;100.00;100962.56;7374968;19;20792;-40
2023/10/18 10:31:57;;;;;;;8.07;1.93;;;;;;;8.95;100.00;100965.53;7372693;19;20442;-41
2023/10/18 10:34:32;;;;;;;7.43;2.33;;;;;;;8.96;100.00;100967.28;7396316;19;20451;-42
2023/10/18 10:37:08;;;;;;;12.30;4.80;;;;;;;9.01;100.00;100960.69;7374838;19;20784;-41
2023/10/18 10:39:49;;;;;;;9.83;2.30;;;;;;;9.09;100.00;100958.53;7389133;19;20406;-40
2023/10/18 10:42:44;;;;;;;3.87;1.30;;;;;;;9.24;100.00;100953.28;7398206;19;20407;-39
2023/10/18 10:45:23;;;;;;;4.70;2.07;;;;;;;9.28;100.00;100960.31;7373116;19;20410;-40
2023/10/18 10:47:55;;;;;;;5.20;2.03;;;;;;;9.39;100.00;100949.69;7396311;19;20809;-39
2023/10/18 10:50:42;;;;;;;6.70;2.40;;;;;;;9.41;100.00;100940.34;7373052;19;20439;-41
2023/10/18 10:53:15;;;;;;;4.77;1.80;;;;;;;9.45;100.00;100931.97;7394663;19;20963;-41
2023/10/18 10:55:46;;;;;;;4.87;1.70;;;;;;;9.46;100.00;100936.31;7372597;19;20409;-41
2023/10/18 10:58:19;;;;;;;6.97;1.90;;;;;;;9.50;100.00;100943.38;7394853;19;21267;-41
2023/10/18 11:01:06;;;;;;;5.03;2.10;;;;;;;9.55;100.00;100926.44;7373654;19;20451;-41
2023/10/18 11:03:52;;;;;;;5.90;2.10;;;;;;;9.59;100.00;100946.41;7397029;19;21104;-39
2023/10/18 11:06:24;;;;;;;4.07;1.70;;;;;;;9.64;100.00;100940.59;7372059;19;20419;-39
2023/10/18 11:08:54;;;;;;;7.27;3.13;;;;;;;9.57;100.00;100937.72;7398735;19;20975;-39
2023/10/18 11:11:26;;;;;;;5.53;2.50;;;;;;;9.54;100.00;100937.56;7370819;19;20502;-39
2023/10/18 11:13:58;;;;;;;5.37;2.00;;;;;;;9.74;100.00;100937.63;7396464;19;20443;-40
2023/10/18 11:16:27;;;;;;;6.00;2.20;;;;;;;9.81;100.00;100929.41;7371831;19;20495;-41
2023/10/18 11:19:00;;;;;;;5.30;2.30;;;;;;;9.82;100.00;100932.84;7396671;19;20467;-42
2023/10/18 11:21:29;;;;;;;5.67;2.30;;;;;;;9.81;100.00;100932.00;7369435;19;20419;-41
2023/10/18 11:24:02;;;;;;;5.13;2.43;;;;;;;9.86;100.00;100937.34;7396101;19;20997;-41
2023/10/18 11:26:39;;;;;;;6.53;2.07;;;;;;;9.89;100.00;100939.19;7371989;19;20797;-41
2023/10/18 11:29:12;;;;;;;4.43;1.50;;;;;;;9.84;100.00;100939.84;7394385;19;20768;-41
2023/10/18 11:31:44;;;;;;;2.93;1.50;;;;;;;9.92;100.00;100939.31;7371084;19;20805;-41
2023/10/18 11:34:21;;;;;;;4.20;1.93;;;;;;;10.04;100.00;100945.06;7395121;19;20466;-41
2023/10/18 11:36:52;;;;;;;3.43;1.40;;;;;;;10.05;100.00;100939.09;7373378;19;20425;-41
2023/10/18 11:39:23;;;;;;;4.87;1.87;;;;;;;10.01;100.00;100932.03;7395776;19;20416;-42
2023/10/18 11:41:53;;;;;;;9.33;2.77;;;;;;;10.03;100.00;100930.41;7371465;19;20423;-41
2023/10/18 11:44:34;;;;;;;7.37;3.77;;;;;;;10.16;100.00;100929.28;7394973;19;20458;-40
2023/10/18 11:47:11;;;;;;;5.50;1.87;;;;;;;10.21;100.00;100924.34;7373277;19;20441;-41
2023/10/18 11:49:42;;;;;;;7.10;2.30;;;;;;;10.24;100.00;100927.03;7373002;19;20411;-41
2023/10/18 11:52:17;;;;;;;3.80;1.87;;;;;;;10.19;100.00;100931.09;7394620;19;20424;-41
2023/10/18 11:54:47;;;;;;;4.80;2.13;;;;;;;10.12;100.00;100924.81;7372557;19;21313;-41
2023/10/18 11:57:35;;;;;;;69.37;35.30;;;;;;;10.50;100.00;100914.47;7392889;19;20427;-41
2023/10/18 12:00:35;;;;;;;6.60;2.60;;;;;;;10.49;100.00;100917.88;7371362;19;20395;-41
2023/10/18 12:03:05;;;;;;;8.03;3.47;;;;;;;10.70;100.00;100917.06;7391673;19;20967;-41